Главная страница
METAR-TAF:

METAR-TAF

Аэропорты :

Бурленге, Швеция

широта: 60-26N, долгота: 015-31E, высота над уровнем моря: 145 м

Текущие метеонаблюдения

Эта сводка был подготовлена 24 минут назад, в 21:20 UTC
Ветер 4 Узел от восточный
Температура 12°C
Влажность 62%
Давление 1019 hPa
Видимость 10 км и более

METAR: ESSD 252120Z AUTO 08004KT 9999 OVC051/// 12/05 Q1019

Время: 23:44 (21:44 UTC)

Прогноз

Эта сводка был подготовлена 10 часа и 14 минут назад, в 11:30 UTC
Прогноз действительный с 25-го 12 UTC до 25-го 15 UTC
Ветер 10 Узел от восточный
Видимость 10 км и более
Нет облачности ниже 1500 м, и нет кучево-дождевой облачности

TAF: ESSD 251130Z 2512/2515 09010KT CAVOK

Метеонаблюдения и прогнозы для более 4000 аэропортов (сводки METAR и TAF).

Имеющиеся станции представлены на карте желтыми и красными точками.

Чтобы увидеть название станции, наведите на нее мышь.

Затем щелкните, чтобы увидеть метеонаблюдения и метеопрогнозы.

Управление картой: чтобы увеличить масштаб, щелкните зеленые кнопки с черным крестиком; чтобы уменьшить масштаб, щелкните зеленую кнопку с тире; для просмотра соседних карт щелкайте зеленые стрелки.


METAR-TAF: